sensor_id;sensor_type;location;lat;lon;timestamp;pressure;altitude;pressure_sealevel;temperature;humidity
49515;BME280;35415;47.870;16.058;2022-09-09T00:02:27;97235.41;;;13.57;91.04
49515;BME280;35415;47.870;16.058;2022-09-09T00:05:08;97226.81;;;13.55;90.85
49515;BME280;35415;47.870;16.058;2022-09-09T00:07:47;97216.56;;;13.52;90.67
49515;BME280;35415;47.870;16.058;2022-09-09T00:10:20;97232.28;;;13.50;90.78
49515;BME280;35415;47.870;16.058;2022-09-09T00:12:55;97223.34;;;13.49;90.72
49515;BME280;35415;47.870;16.058;2022-09-09T00:15:28;97223.06;;;13.51;90.45
49515;BME280;35415;47.870;16.058;2022-09-09T00:18:07;97209.22;;;13.34;90.89
49515;BME280;35415;47.870;16.058;2022-09-09T00:20:44;97212.19;;;13.32;90.99
49515;BME280;35415;47.870;16.058;2022-09-09T00:23:23;97225.06;;;13.40;90.69
49515;BME280;35415;47.870;16.058;2022-09-09T00:25:59;97219.72;;;13.35;90.98
49515;BME280;35415;47.870;16.058;2022-09-09T00:28:29;97231.69;;;13.29;91.20
49515;BME280;35415;47.870;16.058;2022-09-09T00:31:00;97237.09;;;13.29;90.96
49515;BME280;35415;47.870;16.058;2022-09-09T00:33:34;97231.16;;;13.27;90.96
49515;BME280;35415;47.870;16.058;2022-09-09T00:36:11;97224.19;;;13.21;90.99
49515;BME280;35415;47.870;16.058;2022-09-09T00:38:46;97219.59;;;13.21;91.01
49515;BME280;35415;47.870;16.058;2022-09-09T00:41:21;97231.78;;;13.19;91.38
49515;BME280;35415;47.870;16.058;2022-09-09T00:43:57;97237.44;;;13.17;91.29
49515;BME280;35415;47.870;16.058;2022-09-09T00:49:37;97242.09;;;13.12;91.34
49515;BME280;35415;47.870;16.058;2022-09-09T00:52:22;97246.94;;;13.10;91.50
49515;BME280;35415;47.870;16.058;2022-09-09T00:54:55;97238.31;;;13.08;91.63
49515;BME280;35415;47.870;16.058;2022-09-09T00:57:28;97249.69;;;13.05;91.72
49515;BME280;35415;47.870;16.058;2022-09-09T01:00:15;97247.00;;;13.05;91.43
49515;BME280;35415;47.870;16.058;2022-09-09T01:03:08;97247.91;;;12.95;91.12
49515;BME280;35415;47.870;16.058;2022-09-09T01:05:44;97253.28;;;12.95;91.15
49515;BME280;35415;47.870;16.058;2022-09-09T01:08:30;97257.03;;;12.99;90.86
49515;BME280;35415;47.870;16.058;2022-09-09T01:11:01;97237.22;;;12.80;90.98
49515;BME280;35415;47.870;16.058;2022-09-09T01:13:30;97236.94;;;12.76;91.26
49515;BME280;35415;47.870;16.058;2022-09-09T01:16:00;97244.06;;;12.67;91.20
49515;BME280;35415;47.870;16.058;2022-09-09T01:18:31;97262.56;;;12.84;91.32
49515;BME280;35415;47.870;16.058;2022-09-09T01:21:05;97266.06;;;12.84;91.32
49515;BME280;35415;47.870;16.058;2022-09-09T01:23:59;97266.63;;;12.81;91.41
49515;BME280;35415;47.870;16.058;2022-09-09T01:26:32;97253.00;;;12.57;91.60
49515;BME280;35415;47.870;16.058;2022-09-09T01:29:02;97263.75;;;12.68;91.79
49515;BME280;35415;47.870;16.058;2022-09-09T01:31:32;97268.06;;;12.69;91.90
49515;BME280;35415;47.870;16.058;2022-09-09T01:33:59;97269.72;;;12.64;91.76
49515;BME280;35415;47.870;16.058;2022-09-09T01:36:32;97271.59;;;12.64;91.84
49515;BME280;35415;47.870;16.058;2022-09-09T01:39:00;97247.41;;;12.49;91.74
49515;BME280;35415;47.870;16.058;2022-09-09T01:41:27;97264.63;;;12.58;91.70
49515;BME280;35415;47.870;16.058;2022-09-09T01:43:56;97274.34;;;12.54;91.98
49515;BME280;35415;47.870;16.058;2022-09-09T01:46:23;97271.13;;;12.52;92.08
49515;BME280;35415;47.870;16.058;2022-09-09T01:48:53;97264.97;;;12.46;92.05
49515;BME280;35415;47.870;16.058;2022-09-09T01:51:22;97271.69;;;12.49;92.26
49515;BME280;35415;47.870;16.058;2022-09-09T01:53:50;97250.44;;;12.37;92.33
49515;BME280;35415;47.870;16.058;2022-09-09T01:56:26;97273.63;;;12.43;92.26
49515;BME280;35415;47.870;16.058;2022-09-09T01:59:07;97267.69;;;12.41;92.46
49515;BME280;35415;47.870;16.058;2022-09-09T02:01:51;97262.66;;;12.29;92.44
49515;BME280;35415;47.870;16.058;2022-09-09T02:04:34;97250.78;;;12.30;92.45
49515;BME280;35415;47.870;16.058;2022-09-09T02:07:02;97258.06;;;12.30;92.50
49515;BME280;35415;47.870;16.058;2022-09-09T02:09:34;97256.72;;;12.27;92.51
49515;BME280;35415;47.870;16.058;2022-09-09T02:12:10;97255.94;;;12.22;92.56
49515;BME280;35415;47.870;16.058;2022-09-09T02:14:42;97257.53;;;12.23;92.47
49515;BME280;35415;47.870;16.058;2022-09-09T02:17:13;97253.00;;;12.18;92.49
49515;BME280;35415;47.870;16.058;2022-09-09T02:19:44;97253.56;;;12.15;92.78
49515;BME280;35415;47.870;16.058;2022-09-09T02:22:15;97257.28;;;12.19;92.73
49515;BME280;35415;47.870;16.058;2022-09-09T02:24:44;97264.88;;;12.17;92.80
49515;BME280;35415;47.870;16.058;2022-09-09T02:27:16;97261.34;;;12.17;93.07
49515;BME280;35415;47.870;16.058;2022-09-09T02:29:47;97232.38;;;11.93;92.86
49515;BME280;35415;47.870;16.058;2022-09-09T02:32:20;97264.09;;;12.12;93.17
49515;BME280;35415;47.870;16.058;2022-09-09T02:34:53;97271.09;;;12.13;92.87
49515;BME280;35415;47.870;16.058;2022-09-09T02:37:24;97267.59;;;12.12;92.68
49515;BME280;35415;47.870;16.058;2022-09-09T02:39:54;97262.47;;;12.11;92.90
49515;BME280;35415;47.870;16.058;2022-09-09T02:42:22;97263.56;;;12.10;93.07
49515;BME280;35415;47.870;16.058;2022-09-09T02:44:51;97272.47;;;12.05;93.13
49515;BME280;35415;47.870;16.058;2022-09-09T02:47:26;97260.88;;;12.04;92.90
49515;BME280;35415;47.870;16.058;2022-09-09T02:50:04;97255.19;;;12.06;92.96
49515;BME280;35415;47.870;16.058;2022-09-09T02:52:54;97258.44;;;12.03;93.03
49515;BME280;35415;47.870;16.058;2022-09-09T02:55:29;97253.06;;;12.03;93.16
49515;BME280;35415;47.870;16.058;2022-09-09T02:58:04;97255.47;;;12.04;93.11
49515;BME280;35415;47.870;16.058;2022-09-09T03:00:35;97249.56;;;12.02;93.24
49515;BME280;35415;47.870;16.058;2022-09-09T03:03:03;97247.66;;;12.03;93.28
49515;BME280;35415;47.870;16.058;2022-09-09T03:05:31;97247.16;;;12.01;nan
49515;BME280;35415;47.870;16.058;2022-09-09T03:07:58;97240.19;;;11.90;92.84
49515;BME280;35415;47.870;16.058;2022-09-09T03:10:26;97244.19;;;11.97;92.87
49515;BME280;35415;47.870;16.058;2022-09-09T03:12:54;97257.94;;;12.01;92.93
49515;BME280;35415;47.870;16.058;2022-09-09T03:15:22;97252.00;;;11.99;92.84
49515;BME280;35415;47.870;16.058;2022-09-09T03:17:51;97252.00;;;11.99;92.77
49515;BME280;35415;47.870;16.058;2022-09-09T03:20:18;97250.94;;;12.00;92.67
49515;BME280;35415;47.870;16.058;2022-09-09T03:22:47;97240.69;;;11.97;92.72
49515;BME280;35415;47.870;16.058;2022-09-09T03:25:15;97246.91;;;11.97;93.02
49515;BME280;35415;47.870;16.058;2022-09-09T03:27:43;97252.28;;;11.97;92.70
49515;BME280;35415;47.870;16.058;2022-09-09T03:30:11;97238.81;;;11.97;92.75
49515;BME280;35415;47.870;16.058;2022-09-09T03:32:39;97240.97;;;11.95;92.81
49515;BME280;35415;47.870;16.058;2022-09-09T03:35:09;97229.13;;;11.91;92.55
49515;BME280;35415;47.870;16.058;2022-09-09T03:37:36;97250.16;;;11.94;92.88
49515;BME280;35415;47.870;16.058;2022-09-09T03:40:05;97242.06;;;11.94;93.14
49515;BME280;35415;47.870;16.058;2022-09-09T03:42:36;97238.00;;;11.92;93.19
49515;BME280;35415;47.870;16.058;2022-09-09T03:45:05;97246.66;;;11.94;93.31
49515;BME280;35415;47.870;16.058;2022-09-09T03:47:35;97239.94;;;11.86;93.31
49515;BME280;35415;47.870;16.058;2022-09-09T03:50:03;97246.94;;;11.87;93.22
49515;BME280;35415;47.870;16.058;2022-09-09T03:52:36;97245.59;;;11.85;93.27
49515;BME280;35415;47.870;16.058;2022-09-09T03:55:05;97250.47;;;11.78;93.25
49515;BME280;35415;47.870;16.058;2022-09-09T03:57:33;97266.59;;;11.88;93.04
49515;BME280;35415;47.870;16.058;2022-09-09T04:00:02;97262.84;;;11.84;93.09
49515;BME280;35415;47.870;16.058;2022-09-09T04:02:30;97268.78;;;11.86;93.00
49515;BME280;35415;47.870;16.058;2022-09-09T04:04:57;97263.94;;;11.83;93.12
49515;BME280;35415;47.870;16.058;2022-09-09T04:07:25;97228.94;;;11.57;92.87
49515;BME280;35415;47.870;16.058;2022-09-09T04:09:55;97267.19;;;11.80;92.88
49515;BME280;35415;47.870;16.058;2022-09-09T04:12:23;97271.72;;;11.74;93.19
49515;BME280;35415;47.870;16.058;2022-09-09T04:14:50;97263.13;;;11.72;93.14
49515;BME280;35415;47.870;16.058;2022-09-09T04:17:17;97270.16;;;11.68;93.23
49515;BME280;35415;47.870;16.058;2022-09-09T04:19:45;97267.72;;;11.66;93.46
49515;BME280;35415;47.870;16.058;2022-09-09T04:22:12;97275.28;;;11.64;93.37
49515;BME280;35415;47.870;16.058;2022-09-09T04:24:39;97269.63;;;11.61;93.56
49515;BME280;35415;47.870;16.058;2022-09-09T04:27:08;97273.94;;;11.62;93.69
49515;BME280;35415;47.870;16.058;2022-09-09T04:29:35;97274.47;;;11.64;93.54
49515;BME280;35415;47.870;16.058;2022-09-09T04:32:02;97278.25;;;11.63;93.45
49515;BME280;35415;47.870;16.058;2022-09-09T04:34:30;97267.75;;;11.61;93.64
49515;BME280;35415;47.870;16.058;2022-09-09T04:36:58;97262.63;;;11.60;93.55
49515;BME280;35415;47.870;16.058;2022-09-09T04:39:26;97265.84;;;11.57;93.65
49515;BME280;35415;47.870;16.058;2022-09-09T04:41:54;97260.75;;;11.55;93.49
49515;BME280;35415;47.870;16.058;2022-09-09T04:44:22;97261.03;;;11.54;93.58
49515;BME280;35415;47.870;16.058;2022-09-09T04:46:50;97253.22;;;11.52;93.67
49515;BME280;35415;47.870;16.058;2022-09-09T04:49:16;97263.72;;;11.54;93.42
49515;BME280;35415;47.870;16.058;2022-09-09T04:51:44;97247.84;;;11.47;93.17
49515;BME280;35415;47.870;16.058;2022-09-09T04:54:12;97250.28;;;11.49;93.21
49515;BME280;35415;47.870;16.058;2022-09-09T04:56:39;97255.38;;;11.50;93.56
49515;BME280;35415;47.870;16.058;2022-09-09T04:59:06;97241.38;;;11.48;93.68
49515;BME280;35415;47.870;16.058;2022-09-09T05:01:37;97251.34;;;11.48;93.79
49515;BME280;35415;47.870;16.058;2022-09-09T05:04:04;97237.09;;;11.37;93.91
49515;BME280;35415;47.870;16.058;2022-09-09T05:06:31;97243.28;;;11.48;93.69
49515;BME280;35415;47.870;16.058;2022-09-09T05:08:59;97242.19;;;11.49;93.68
49515;BME280;35415;47.870;16.058;2022-09-09T05:11:29;97245.69;;;11.49;93.56
49515;BME280;35415;47.870;16.058;2022-09-09T05:13:57;97251.88;;;11.50;93.24
49515;BME280;35415;47.870;16.058;2022-09-09T05:16:25;97251.59;;;11.51;93.73
49515;BME280;35415;47.870;16.058;2022-09-09T05:18:54;97261.81;;;11.54;93.91
49515;BME280;35415;47.870;16.058;2022-09-09T05:21:23;97271.53;;;11.55;94.02
49515;BME280;35415;47.870;16.058;2022-09-09T05:23:50;97268.28;;;11.53;94.22
49515;BME280;35415;47.870;16.058;2022-09-09T05:26:20;97258.06;;;11.60;94.14
49515;BME280;35415;47.870;16.058;2022-09-09T05:28:47;97270.41;;;11.66;94.13
49515;BME280;35415;47.870;16.058;2022-09-09T05:31:17;97267.44;;;11.68;94.24
49515;BME280;35415;47.870;16.058;2022-09-09T05:33:45;97266.09;;;11.70;93.99
49515;BME280;35415;47.870;16.058;2022-09-09T05:36:16;97248.06;;;11.66;93.63
49515;BME280;35415;47.870;16.058;2022-09-09T05:38:44;97235.69;;;11.60;93.57
49515;BME280;35415;47.870;16.058;2022-09-09T05:41:12;97268.75;;;11.75;93.66
49515;BME280;35415;47.870;16.058;2022-09-09T05:43:41;97265.56;;;11.79;93.69
49515;BME280;35415;47.870;16.058;2022-09-09T05:46:11;97263.94;;;11.83;93.67
49515;BME280;35415;47.870;16.058;2022-09-09T05:48:40;97265.00;;;11.87;94.02
49515;BME280;35415;47.870;16.058;2022-09-09T05:51:09;97258.53;;;11.88;94.17
49515;BME280;35415;47.870;16.058;2022-09-09T05:53:39;97247.50;;;11.84;94.57
49515;BME280;35415;47.870;16.058;2022-09-09T05:56:08;97270.88;;;11.99;94.42
49515;BME280;35415;47.870;16.058;2022-09-09T05:58:37;97270.84;;;12.04;94.11
49515;BME280;35415;47.870;16.058;2022-09-09T06:01:06;97234.78;;;11.90;93.85
49515;BME280;35415;47.870;16.058;2022-09-09T06:03:34;97251.69;;;12.05;93.42
49515;BME280;35415;47.870;16.058;2022-09-09T06:06:04;97260.00;;;12.19;93.78
49515;BME280;35415;47.870;16.058;2022-09-09T06:08:32;97248.94;;;12.21;93.63
49515;BME280;35415;47.870;16.058;2022-09-09T06:11:05;97252.91;;;12.33;93.73
49515;BME280;35415;47.870;16.058;2022-09-09T06:13:33;97260.16;;;12.38;93.57
49515;BME280;35415;47.870;16.058;2022-09-09T06:16:03;97245.59;;;12.39;93.64
49515;BME280;35415;47.870;16.058;2022-09-09T06:18:30;97254.94;;;12.52;93.86
49515;BME280;35415;47.870;16.058;2022-09-09T06:20:59;97260.81;;;12.59;93.56
49515;BME280;35415;47.870;16.058;2022-09-09T06:23:30;97255.94;;;12.66;93.28
49515;BME280;35415;47.870;16.058;2022-09-09T06:26:05;97245.44;;;12.59;93.08
49515;BME280;35415;47.870;16.058;2022-09-09T06:28:34;97239.19;;;12.69;93.12
49515;BME280;35415;47.870;16.058;2022-09-09T06:31:04;97257.38;;;12.87;92.50
49515;BME280;35415;47.870;16.058;2022-09-09T06:33:33;97242.00;;;12.88;92.37
49515;BME280;35415;47.870;16.058;2022-09-09T06:36:03;97248.69;;;12.95;91.78
49515;BME280;35415;47.870;16.058;2022-09-09T06:38:31;97233.31;;;12.91;91.54
49515;BME280;35415;47.870;16.058;2022-09-09T06:40:59;97243.41;;;13.14;91.63
49515;BME280;35415;47.870;16.058;2022-09-09T06:43:29;97232.91;;;13.08;91.32
49515;BME280;35415;47.870;16.058;2022-09-09T06:45:58;97222.63;;;13.10;91.48
49515;BME280;35415;47.870;16.058;2022-09-09T06:48:26;97246.50;;;13.32;91.46
49515;BME280;35415;47.870;16.058;2022-09-09T06:51:01;97247.78;;;13.39;91.02
49515;BME280;35415;47.870;16.058;2022-09-09T06:53:29;97248.53;;;13.45;91.07
49515;BME280;35415;47.870;16.058;2022-09-09T06:55:59;97249.28;;;13.50;90.51
49515;BME280;35415;47.870;16.058;2022-09-09T06:58:26;97243.59;;;13.52;90.22
49515;BME280;35415;47.870;16.058;2022-09-09T07:01:03;97243.00;;;13.55;89.95
49515;BME280;35415;47.870;16.058;2022-09-09T07:03:31;97164.09;;;13.05;89.84
49515;BME280;35415;47.870;16.058;2022-09-09T07:05:58;97262.00;;;13.74;89.72
49515;BME280;35415;47.870;16.058;2022-09-09T07:08:25;97260.88;;;13.80;89.33
49515;BME280;35415;47.870;16.058;2022-09-09T07:10:53;97258.59;;;13.87;89.32
49515;BME280;35415;47.870;16.058;2022-09-09T07:13:24;97254.22;;;13.91;88.82
49515;BME280;35415;47.870;16.058;2022-09-09T07:15:54;97262.50;;;14.00;88.86
49515;BME280;35415;47.870;16.058;2022-09-09T07:18:23;97259.44;;;14.06;88.71
49515;BME280;35415;47.870;16.058;2022-09-09T07:20:53;97252.09;;;14.12;88.04
49515;BME280;35415;47.870;16.058;2022-09-09T07:23:23;97256.84;;;14.20;88.42
49515;BME280;35415;47.870;16.058;2022-09-09T07:25:50;97256.47;;;14.27;88.21
49515;BME280;35415;47.870;16.058;2022-09-09T07:28:21;97245.66;;;14.27;88.07
49515;BME280;35415;47.870;16.058;2022-09-09T07:30:53;97236.38;;;14.33;87.52
49515;BME280;35415;47.870;16.058;2022-09-09T07:33:24;97251.84;;;14.51;87.88
49515;BME280;35415;47.870;16.058;2022-09-09T07:35:52;97235.41;;;14.48;86.73
49515;BME280;35415;47.870;16.058;2022-09-09T07:38:20;97192.50;;;14.17;87.37
49515;BME280;35415;47.870;16.058;2022-09-09T07:40:48;97252.13;;;14.68;86.46
49515;BME280;35415;47.870;16.058;2022-09-09T07:43:15;97235.19;;;14.63;85.36
49515;BME280;35415;47.870;16.058;2022-09-09T07:45:46;97261.84;;;14.88;84.61
49515;BME280;35415;47.870;16.058;2022-09-09T07:48:15;97251.44;;;14.95;84.30
49515;BME280;35415;47.870;16.058;2022-09-09T07:50:44;97250.25;;;15.01;84.48
49515;BME280;35415;47.870;16.058;2022-09-09T07:53:11;97261.22;;;15.10;83.87
49515;BME280;35415;47.870;16.058;2022-09-09T07:55:38;97183.16;;;14.66;83.46
49515;BME280;35415;47.870;16.058;2022-09-09T07:58:05;97260.44;;;15.23;84.20
49515;BME280;35415;47.870;16.058;2022-09-09T08:00:33;97262.25;;;15.28;83.63
49515;BME280;35415;47.870;16.058;2022-09-09T08:03:00;97261.09;;;15.34;83.40
49515;BME280;35415;47.870;16.058;2022-09-09T08:05:30;97247.53;;;15.34;83.17
49515;BME280;35415;47.870;16.058;2022-09-09T08:08:07;97232.28;;;15.38;81.68
49515;BME280;35415;47.870;16.058;2022-09-09T08:10:34;97237.28;;;15.45;82.31
49515;BME280;35415;47.870;16.058;2022-09-09T08:13:02;97240.13;;;15.53;82.49
49515;BME280;35415;47.870;16.058;2022-09-09T08:15:31;97267.00;;;15.69;84.23
49515;BME280;35415;47.870;16.058;2022-09-09T08:17:59;97256.22;;;15.77;84.06
49515;BME280;35415;47.870;16.058;2022-09-09T08:20:28;97214.53;;;15.59;84.36
49515;BME280;35415;47.870;16.058;2022-09-09T08:22:55;97264.56;;;15.94;84.49
49515;BME280;35415;47.870;16.058;2022-09-09T08:25:25;97263.06;;;16.02;82.57
49515;BME280;35415;47.870;16.058;2022-09-09T08:27:53;97264.97;;;16.15;84.01
49515;BME280;35415;47.870;16.058;2022-09-09T08:30:21;97270.00;;;16.22;82.23
49515;BME280;35415;47.870;16.058;2022-09-09T08:32:48;97250.38;;;16.25;83.50
49515;BME280;35415;47.870;16.058;2022-09-09T08:35:16;97260.09;;;16.40;82.60
49515;BME280;35415;47.870;16.058;2022-09-09T08:37:44;97262.78;;;16.53;82.43
49515;BME280;35415;47.870;16.058;2022-09-09T08:40:18;97268.28;;;16.62;82.53
49515;BME280;35415;47.870;16.058;2022-09-09T08:42:52;97265.06;;;16.74;81.77
49515;BME280;35415;47.870;16.058;2022-09-09T08:45:29;97274.13;;;16.83;81.31
49515;BME280;35415;47.870;16.058;2022-09-09T08:48:10;97277.38;;;16.94;81.09
49515;BME280;35415;47.870;16.058;2022-09-09T08:50:42;97262.09;;;16.98;80.11
49515;BME280;35415;47.870;16.058;2022-09-09T08:53:16;97261.88;;;17.17;81.09
49515;BME280;35415;47.870;16.058;2022-09-09T08:55:47;97245.63;;;17.25;80.46
49515;BME280;35415;47.870;16.058;2022-09-09T08:58:18;97244.56;;;17.35;79.27
49515;BME280;35415;47.870;16.058;2022-09-09T09:01:15;97232.13;;;17.42;78.89
49515;BME280;35415;47.870;16.058;2022-09-09T09:03:52;97236.84;;;17.59;78.03
49515;BME280;35415;47.870;16.058;2022-09-09T09:06:34;97241.41;;;17.72;77.49
49515;BME280;35415;47.870;16.058;2022-09-09T09:09:07;97231.38;;;17.82;79.05
49515;BME280;35415;47.870;16.058;2022-09-09T09:11:39;97228.19;;;17.97;77.34
49515;BME280;35415;47.870;16.058;2022-09-09T09:14:11;97233.41;;;18.16;78.26
49515;BME280;35415;47.870;16.058;2022-09-09T09:16:48;97218.03;;;18.28;77.79
49515;BME280;35415;47.870;16.058;2022-09-09T09:19:17;97210.84;;;18.50;77.97
49515;BME280;35415;47.870;16.058;2022-09-09T09:21:51;97204.31;;;18.68;77.60
49515;BME280;35415;47.870;16.058;2022-09-09T09:24:25;97190.03;;;18.80;74.07
49515;BME280;35415;47.870;16.058;2022-09-09T09:26:54;97189.19;;;18.97;69.89
49515;BME280;35415;47.870;16.058;2022-09-09T09:29:26;97204.25;;;19.20;72.12
49515;BME280;35415;47.870;16.058;2022-09-09T09:31:55;97165.75;;;19.21;72.12
49515;BME280;35415;47.870;16.058;2022-09-09T09:34:26;97192.75;;;19.52;69.65
49515;BME280;35415;47.870;16.058;2022-09-09T09:36:56;97194.97;;;19.68;69.82
49515;BME280;35415;47.870;16.058;2022-09-09T09:39:25;97194.72;;;19.81;70.43
49515;BME280;35415;47.870;16.058;2022-09-09T09:41:53;97130.81;;;19.53;71.25
49515;BME280;35415;47.870;16.058;2022-09-09T09:44:27;97183.41;;;20.00;70.72
49515;BME280;35415;47.870;16.058;2022-09-09T09:47:06;97179.28;;;20.15;69.83
49515;BME280;35415;47.870;16.058;2022-09-09T09:49:34;97189.78;;;20.34;68.09
49515;BME280;35415;47.870;16.058;2022-09-09T09:52:17;97200.59;;;20.51;67.64
49515;BME280;35415;47.870;16.058;2022-09-09T09:54:47;97198.59;;;20.60;62.82
49515;BME280;35415;47.870;16.058;2022-09-09T09:57:16;97204.13;;;20.72;66.11
49515;BME280;35415;47.870;16.058;2022-09-09T09:59:46;97199.69;;;20.80;61.10
49515;BME280;35415;47.870;16.058;2022-09-09T10:02:16;97199.28;;;20.90;62.57
49515;BME280;35415;47.870;16.058;2022-09-09T10:04:44;97159.03;;;20.79;66.06
49515;BME280;35415;47.870;16.058;2022-09-09T10:07:13;97189.31;;;21.07;61.53
49515;BME280;35415;47.870;16.058;2022-09-09T10:09:44;97190.81;;;21.16;60.63
49515;BME280;35415;47.870;16.058;2022-09-09T10:12:19;97176.50;;;21.19;65.85
49515;BME280;35415;47.870;16.058;2022-09-09T10:14:57;97186.72;;;21.43;64.82
49515;BME280;35415;47.870;16.058;2022-09-09T10:17:33;97173.28;;;21.50;64.76
49515;BME280;35415;47.870;16.058;2022-09-09T10:20:24;97183.78;;;21.73;63.81
49515;BME280;35415;47.870;16.058;2022-09-09T10:23:06;97169.75;;;21.86;62.17
49515;BME280;35415;47.870;16.058;2022-09-09T10:25:58;97173.19;;;22.08;62.65
49515;BME280;35415;47.870;16.058;2022-09-09T10:28:41;97173.03;;;22.29;62.48
49515;BME280;35415;47.870;16.058;2022-09-09T10:31:19;97167.19;;;22.42;62.86
49515;BME280;35415;47.870;16.058;2022-09-09T10:33:54;97173.53;;;22.59;59.82
49515;BME280;35415;47.870;16.058;2022-09-09T10:36:25;97132.25;;;22.39;56.26
49515;BME280;35415;47.870;16.058;2022-09-09T10:38:58;97160.88;;;22.82;56.26
49515;BME280;35415;47.870;16.058;2022-09-09T10:41:42;97161.38;;;23.00;57.00
49515;BME280;35415;47.870;16.058;2022-09-09T10:47:26;97155.94;;;23.31;59.68
49515;BME280;35415;47.870;16.058;2022-09-09T10:53:02;97101.31;;;23.26;56.91
49515;BME280;35415;47.870;16.058;2022-09-09T10:55:38;97157.75;;;23.71;55.46
49515;BME280;35415;47.870;16.058;2022-09-09T10:58:12;97126.66;;;23.67;54.59
49515;BME280;35415;47.870;16.058;2022-09-09T11:00:44;97134.34;;;23.77;56.46
49515;BME280;35415;47.870;16.058;2022-09-09T11:03:19;97142.91;;;24.07;54.58
49515;BME280;35415;47.870;16.058;2022-09-09T11:05:51;97151.63;;;24.28;53.50
49515;BME280;35415;47.870;16.058;2022-09-09T11:08:23;97146.03;;;24.41;53.67
49515;BME280;35415;47.870;16.058;2022-09-09T11:10:53;97148.97;;;24.51;58.22
49515;BME280;35415;47.870;16.058;2022-09-09T11:13:29;97153.13;;;24.61;54.82
49515;BME280;35415;47.870;16.058;2022-09-09T11:16:04;97154.41;;;24.67;51.81
49515;BME280;35415;47.870;16.058;2022-09-09T11:18:41;97083.88;;;24.36;52.46
49515;BME280;35415;47.870;16.058;2022-09-09T11:21:17;97142.63;;;24.86;53.82
49515;BME280;35415;47.870;16.058;2022-09-09T11:23:49;97143.50;;;24.90;47.18
49515;BME280;35415;47.870;16.058;2022-09-09T11:26:28;97149.91;;;24.98;50.33
49515;BME280;35415;47.870;16.058;2022-09-09T11:29:08;97125.81;;;24.91;49.56
49515;BME280;35415;47.870;16.058;2022-09-09T11:31:46;97146.63;;;25.08;47.82
49515;BME280;35415;47.870;16.058;2022-09-09T11:34:27;97089.56;;;24.66;48.58
49515;BME280;35415;47.870;16.058;2022-09-09T11:40:14;97145.56;;;25.16;49.62
49515;BME280;35415;47.870;16.058;2022-09-09T11:42:45;97150.66;;;25.14;48.05
49515;BME280;35415;47.870;16.058;2022-09-09T11:45:24;97149.91;;;25.17;48.45
49515;BME280;35415;47.870;16.058;2022-09-09T11:47:55;97139.88;;;25.05;46.35
49515;BME280;35415;47.870;16.058;2022-09-09T11:50:34;97152.19;;;25.11;48.12
49515;BME280;35415;47.870;16.058;2022-09-09T11:53:22;97153.41;;;25.14;48.93
49515;BME280;35415;47.870;16.058;2022-09-09T11:56:24;97135.00;;;24.99;47.98
49515;BME280;35415;47.870;16.058;2022-09-09T11:58:57;97132.91;;;24.92;46.24
49515;BME280;35415;47.870;16.058;2022-09-09T12:01:37;97121.19;;;24.76;45.98
49515;BME280;35415;47.870;16.058;2022-09-09T12:04:32;97137.47;;;24.84;46.97
49515;BME280;35415;47.870;16.058;2022-09-09T12:07:24;97140.16;;;24.81;46.80
49515;BME280;35415;47.870;16.058;2022-09-09T12:09:56;97137.34;;;24.58;44.67
49515;BME280;35415;47.870;16.058;2022-09-09T12:12:31;97140.16;;;24.62;47.01
49515;BME280;35415;47.870;16.058;2022-09-09T12:15:22;97138.94;;;24.59;48.26
49515;BME280;35415;47.870;16.058;2022-09-09T12:17:52;97132.00;;;24.46;49.21
49515;BME280;35415;47.870;16.058;2022-09-09T12:20:22;97142.84;;;24.39;49.38
49515;BME280;35415;47.870;16.058;2022-09-09T12:28:55;97142.19;;;24.10;51.47
49515;BME280;35415;47.870;16.058;2022-09-09T12:31:28;97146.28;;;24.00;52.34
49515;BME280;35415;47.870;16.058;2022-09-09T12:34:10;97142.72;;;24.00;53.36
49515;BME280;35415;47.870;16.058;2022-09-09T12:36:38;97144.00;;;23.87;55.33
49515;BME280;35415;47.870;16.058;2022-09-09T12:39:16;97128.94;;;23.81;55.71
49515;BME280;35415;47.870;16.058;2022-09-09T12:41:53;97128.78;;;23.74;56.89
49515;BME280;35415;47.870;16.058;2022-09-09T12:44:38;97125.06;;;23.66;58.47
49515;BME280;35415;47.870;16.058;2022-09-09T12:47:05;97113.00;;;23.55;58.00
49515;BME280;35415;47.870;16.058;2022-09-09T12:49:35;97091.16;;;23.27;59.09
49515;BME280;35415;47.870;16.058;2022-09-09T12:52:06;97105.75;;;23.31;59.31
49515;BME280;35415;47.870;16.058;2022-09-09T12:54:36;97117.06;;;23.29;58.44
49515;BME280;35415;47.870;16.058;2022-09-09T12:57:04;97116.34;;;23.17;58.69
49515;BME280;35415;47.870;16.058;2022-09-09T12:59:40;97116.63;;;23.11;58.70
49515;BME280;35415;47.870;16.058;2022-09-09T13:02:18;97115.66;;;23.04;58.80
49515;BME280;35415;47.870;16.058;2022-09-09T13:04:46;97117.84;;;22.98;60.64
49515;BME280;35415;47.870;16.058;2022-09-09T13:07:16;97118.03;;;22.90;60.71
49515;BME280;35415;47.870;16.058;2022-09-09T13:09:44;97118.38;;;22.88;61.52
49515;BME280;35415;47.870;16.058;2022-09-09T13:12:15;97088.50;;;22.71;62.20
49515;BME280;35415;47.870;16.058;2022-09-09T13:14:47;97109.69;;;22.86;61.50
49515;BME280;35415;47.870;16.058;2022-09-09T13:17:20;97105.38;;;22.85;60.27
49515;BME280;35415;47.870;16.058;2022-09-09T13:19:48;97114.75;;;23.00;60.25
49515;BME280;35415;47.870;16.058;2022-09-09T13:22:29;97111.38;;;22.91;61.55
49515;BME280;35415;47.870;16.058;2022-09-09T13:24:59;97100.69;;;22.86;62.18
49515;BME280;35415;47.870;16.058;2022-09-09T13:27:31;97098.09;;;22.93;62.58
49515;BME280;35415;47.870;16.058;2022-09-09T13:30:01;97107.22;;;22.97;58.09
49515;BME280;35415;47.870;16.058;2022-09-09T13:32:29;97101.13;;;23.03;58.43
49515;BME280;35415;47.870;16.058;2022-09-09T13:34:59;97103.63;;;23.08;56.38